| time (UTC) | temp C | wind direction | speed KPH | gust KPH | rain 1hr cm | rain 24hr cm | rain mn cm | humidity % | barometer mb |
| 20260506222533 | 33 | 222 | 1.6 | 1.6 | 0.00 | 0.00 | 0.00 | 36 | 1015.2 |
| 20260506222030 | 34 | 151 | 3.2 | 4.8 | 0.00 | 0.00 | 0.00 | 38 | 1015.2 |
| 20260506221527 | 34 | 211 | 4.8 | 8.0 | 0.00 | 0.00 | 0.00 | 36 | 1014.9 |
| 20260506221025 | 34 | 197 | 1.6 | 1.6 | 0.00 | 0.00 | 0.00 | 37 | 1015.1 |
| 20260506220521 | 34 | 209 | 3.2 | 3.2 | 0.00 | 0.00 | 0.00 | 37 | 1015.0 |
| 20260506220016 | 34 | 156 | 4.8 | 4.8 | 0.00 | 0.00 | 0.00 | 37 | 1015.1 |
| 20260506215514 | 34 | 204 | 3.2 | 3.2 | 0.00 | 0.00 | 0.00 | 37 | 1014.9 |
| 20260506215009 | 34 | 220 | 4.8 | 4.8 | 0.00 | 0.00 | 0.00 | 37 | 1015.1 |
| 20260506214506 | 34 | 246 | 1.6 | 1.6 | 0.00 | 0.00 | 0.00 | 36 | 1015.1 |
| 20260506214003 | 33 | 248 | 4.8 | 4.8 | 0.00 | 0.00 | 0.00 | 37 | 1015.1 |
| 20260506213501 | 33 | 178 | 6.4 | 8.0 | 0.00 | 0.00 | 0.00 | 37 | 1015.2 |
| 20260506212958 | 33 | 193 | 6.4 | 8.0 | 0.00 | 0.00 | 0.00 | 37 | 1015.0 |
| 20260506212454 | 34 | 164 | 3.2 | 4.8 | 0.00 | 0.00 | 0.00 | 36 | 1015.1 |
| 20260506211948 | 34 | 286 | 3.2 | 3.2 | 0.00 | 0.00 | 0.00 | 35 | 1015.2 |
| 20260506211445 | 34 | 256 | 3.2 | 3.2 | 0.00 | 0.00 | 0.00 | 36 | 1015.3 |
| 20260506210942 | 34 | 281 | 1.6 | 3.2 | 0.00 | 0.00 | 0.00 | 35 | 1015.3 |
| 20260506210438 | 34 | 211 | 3.2 | 3.2 | 0.00 | 0.00 | 0.00 | 35 | 1015.3 |
| 20260506205936 | 33 | 229 | 6.4 | 8.0 | 0.00 | 0.00 | 0.00 | 35 | 1015.2 |
| 20260506205432 | 33 | 231 | 4.8 | 4.8 | 0.00 | 0.00 | 0.00 | 35 | 1015.3 |
| 20260506204929 | 33 | 203 | 8.0 | 11.3 | 0.00 | 0.00 | 0.00 | 36 | 1015.5 |
| 20260506204427 | 33 | 208 | 6.4 | 8.0 | 0.00 | 0.00 | 0.00 | 36 | 1015.7 |
| 20260506203924 | 33 | 207 | 4.8 | 4.8 | 0.00 | 0.00 | 0.00 | 36 | 1015.4 |
| 20260506203421 | 34 | 121 | 3.2 | 4.8 | 0.00 | 0.00 | 0.00 | 37 | 1015.6 |
| 20260506202917 | 33 | 117 | 1.6 | 1.6 | 0.00 | 0.00 | 0.00 | 37 | 1015.7 |
| 20260506202414 | 34 | 219 | 6.4 | 8.0 | 0.00 | 0.00 | 0.00 | 38 | 1015.6 |
| 20260506201911 | 33 | 143 | 1.6 | 1.6 | 0.00 | 0.00 | 0.00 | 38 | 1015.5 |
| 20260506201408 | 33 | 219 | 3.2 | 4.8 | 0.00 | 0.00 | 0.00 | 40 | 1015.7 |
| 20260506200905 | 33 | 117 | 3.2 | 4.8 | 0.00 | 0.00 | 0.00 | 39 | 1015.9 |
| 20260506200401 | 33 | 182 | 8.0 | 12.9 | 0.00 | 0.00 | 0.00 | 38 | 1015.7 |
| 20260506195857 | 33 | 81 | 1.6 | 1.6 | 0.00 | 0.00 | 0.00 | 40 | 1015.9 |
| 20260506195355 | 33 | 234 | 1.6 | 3.2 | 0.00 | 0.00 | 0.00 | 40 | 1016.0 |
| 20260506194851 | 33 | 238 | 8.0 | 9.7 | 0.00 | 0.00 | 0.00 | 39 | 1016.3 |
| 20260506194348 | 33 | 83 | 1.6 | 1.6 | 0.00 | 0.00 | 0.00 | 40 | 1016.3 |
| 20260506193846 | 33 | 283 | 9.7 | 12.9 | 0.00 | 0.00 | 0.00 | 38 | 1016.2 |
| 20260506193342 | 33 | 195 | 3.2 | 3.2 | 0.00 | 0.00 | 0.00 | 39 | 1016.2 |
| 20260506192838 | 33 | 215 | 4.8 | 4.8 | 0.00 | 0.00 | 0.00 | 40 | 1016.4 |
| 20260506192335 | 33 | 146 | 1.6 | 3.2 | 0.00 | 0.00 | 0.00 | 40 | 1016.5 |
| 20260506191832 | 33 | 115 | 1.6 | 3.2 | 0.00 | 0.00 | 0.00 | 41 | 1016.7 |
| 20260506191329 | 32 | 245 | 8.0 | 11.3 | 0.00 | 0.00 | 0.00 | 40 | 1016.7 |
| 20260506190826 | 33 | 229 | 8.0 | 11.3 | 0.00 | 0.00 | 0.00 | 40 | 1016.7 |
| 20260506190322 | 32 | 105 | 1.6 | 1.6 | 0.00 | 0.00 | 0.00 | 42 | 1016.8 |
| 20260506185819 | 33 | 240 | 6.4 | 9.7 | 0.00 | 0.00 | 0.00 | 40 | 1016.8 |
| 20260506185316 | 33 | 152 | 3.2 | 3.2 | 0.00 | 0.00 | 0.00 | 40 | 1016.8 |
| 20260506184813 | 33 | 38 | 0.0 | 1.6 | 0.00 | 0.00 | 0.00 | 40 | 1016.8 |
| 20260506184310 | 32 | 53 | 0.0 | 0.0 | 0.00 | 0.00 | 0.00 | 41 | 1016.9 |
| 20260506183807 | 32 | 114 | 1.6 | 1.6 | 0.00 | 0.00 | 0.00 | 42 | 1017.1 |
| 20260506183303 | 32 | 285 | 6.4 | 8.0 | 0.00 | 0.00 | 0.00 | 42 | 1017.0 |
| 20260506182800 | 32 | 238 | 8.0 | 11.3 | 0.00 | 0.00 | 0.00 | 40 | 1017.2 |
| 20260506182257 | 32 | 185 | 6.4 | 8.0 | 0.00 | 0.00 | 0.00 | 41 | 1017.2 |
| 20260506181755 | 33 | 253 | 8.0 | 11.3 | 0.00 | 0.00 | 0.00 | 41 | 1017.2 |
| 20260506181252 | 32 | 193 | 4.8 | 8.0 | 0.00 | 0.00 | 0.00 | 41 | 1017.4 |
| 20260506180749 | 32 | 11 | 3.2 | 4.8 | 0.00 | 0.00 | 0.00 | 42 | 1017.4 |
| 20260506180245 | 31 | 104 | 0.0 | 1.6 | 0.00 | 0.00 | 0.00 | 43 | 1017.6 |
| 20260506175742 | 32 | 220 | 4.8 | 4.8 | 0.00 | 0.00 | 0.00 | 44 | 1017.4 |
| 20260506175239 | 32 | 76 | 0.0 | 1.6 | 0.00 | 0.00 | 0.00 | 43 | 1017.3 |
| 20260506174736 | 32 | 48 | 3.2 | 4.8 | 0.00 | 0.00 | 0.00 | 43 | 1017.6 |
| 20260506174233 | 31 | 197 | 4.8 | 4.8 | 0.00 | 0.00 | 0.00 | 46 | 1017.5 |
| 20260506173731 | 31 | 273 | 6.4 | 9.7 | 0.00 | 0.00 | 0.00 | 44 | 1017.8 |
| 20260506173227 | 31 | 220 | 1.6 | 1.6 | 0.00 | 0.00 | 0.00 | 46 | 1017.7 |
| 20260506172724 | 31 | 245 | 8.0 | 12.9 | 0.00 | 0.00 | 0.00 | 43 | 1017.8 |
| 20260506172221 | 32 | 103 | 0.0 | 1.6 | 0.00 | 0.00 | 0.00 | 46 | 1018.0 |
| 20260506171718 | 31 | 219 | 0.0 | 0.0 | 0.00 | 0.00 | 0.00 | 47 | 1018.2 |
| 20260506171216 | 31 | 125 | 1.6 | 3.2 | 0.00 | 0.00 | 0.00 | 48 | 1017.9 |
| 20260506170713 | 30 | 183 | 1.6 | 1.6 | 0.00 | 0.00 | 0.00 | 48 | 1018.1 |
| 20260506170210 | 30 | 244 | 9.7 | 11.3 | 0.00 | 0.00 | 0.00 | 48 | 1018.4 |
| 20260506165708 | 30 | 262 | 3.2 | 4.8 | 0.00 | 0.00 | 0.00 | 49 | 1018.0 |
| 20260506165204 | 30 | 205 | 4.8 | 8.0 | 0.00 | 0.00 | 0.00 | 47 | 1018.3 |
| 20260506164702 | 30 | 163 | 3.2 | 3.2 | 0.00 | 0.00 | 0.00 | 48 | 1018.3 |
| 20260506164159 | 30 | 347 | 0.0 | 1.6 | 0.00 | 0.00 | 0.00 | 50 | 1018.4 |
| 20260506163655 | 30 | 256 | 1.6 | 3.2 | 0.00 | 0.00 | 0.00 | 50 | 1018.5 |
| 20260506163150 | 30 | 51 | 0.0 | 0.0 | 0.00 | 0.00 | 0.00 | 52 | 1018.3 |
| 20260506162647 | 30 | 225 | 3.2 | 4.8 | 0.00 | 0.00 | 0.00 | 51 | 1018.5 |
| 20260506162144 | 30 | 193 | 3.2 | 4.8 | 0.00 | 0.00 | 0.00 | 54 | 1018.7 |
| 20260506161641 | 29 | 191 | 1.6 | 3.2 | 0.00 | 0.00 | 0.00 | 52 | 1018.9 |
| 20260506161138 | 30 | 218 | 4.8 | 8.0 | 0.00 | 0.00 | 0.00 | 51 | 1018.7 |
| 20260506160636 | 29 | 235 | 11.3 | 14.5 | 0.00 | 0.00 | 0.00 | 51 | 1018.9 |
| 20260506160132 | 29 | 170 | 3.2 | 3.2 | 0.00 | 0.00 | 0.00 | 54 | 1018.9 |
| 20260506155631 | 29 | 229 | 9.7 | 11.3 | 0.00 | 0.00 | 0.00 | 54 | 1018.6 |
| 20260506155128 | 29 | 189 | 4.8 | 8.0 | 0.00 | 0.00 | 0.00 | 54 | 1019.0 |
| 20260506153225 | 28 | 130 | 0.0 | 1.6 | 0.00 | 0.00 | 0.00 | 57 | 1018.7 |
| 20260506152722 | 28 | 227 | 4.8 | 8.0 | 0.00 | 0.00 | 0.00 | 56 | 1018.7 |
| 20260506152219 | 28 | 203 | 3.2 | 3.2 | 0.00 | 0.00 | 0.00 | 57 | 1018.4 |
| 20260506151718 | 28 | 158 | 3.2 | 4.8 | 0.00 | 0.00 | 0.00 | 57 | 1018.8 |
| 20260506151214 | 28 | 215 | 4.8 | 4.8 | 0.00 | 0.00 | 0.00 | 58 | 1018.7 |
| 20260506150711 | 27 | 215 | 3.2 | 4.8 | 0.00 | 0.00 | 0.00 | 59 | 1018.7 |
| 20260506150208 | 27 | 231 | 4.8 | 4.8 | 0.00 | 0.00 | 0.00 | 59 | 1018.8 |
| 20260506145705 | 27 | 94 | 1.6 | 1.6 | 0.00 | 0.00 | 0.00 | 60 | 1018.6 |
| 20260506145201 | 27 | 90 | 1.6 | 1.6 | 0.00 | 0.00 | 0.00 | 61 | 1018.5 |
| 20260506144658 | 26 | 193 | 3.2 | 4.8 | 0.00 | 0.00 | 0.00 | 61 | 1018.6 |
| 20260506144155 | 26 | 198 | 1.6 | 1.6 | 0.00 | 0.00 | 0.00 | 62 | 1018.3 |
| 20260506143653 | 26 | 228 | 9.7 | 11.3 | 0.00 | 0.00 | 0.00 | 62 | 1018.3 |
| 20260506143151 | 26 | 225 | 4.8 | 8.0 | 0.00 | 0.00 | 0.00 | 63 | 1018.5 |
| 20260506142649 | 25 | 150 | 3.2 | 3.2 | 0.00 | 0.00 | 0.00 | 65 | 1018.3 |
| 20260506142146 | 25 | 234 | 6.4 | 11.3 | 0.00 | 0.00 | 0.00 | 65 | 1018.4 |
| 20260506141644 | 25 | 173 | 1.6 | 1.6 | 0.00 | 0.00 | 0.00 | 65 | 1018.5 |
| 20260506141142 | 25 | 147 | 1.6 | 1.6 | 0.00 | 0.00 | 0.00 | 66 | 1018.4 |
| 20260506140639 | 25 | 132 | 3.2 | 4.8 | 0.00 | 0.00 | 0.00 | 67 | 1018.4 |
| 20260506140137 | 25 | 210 | 3.2 | 4.8 | 0.00 | 0.00 | 0.00 | 68 | 1018.5 |
| 20260506135634 | 25 | 174 | 4.8 | 4.8 | 0.00 | 0.00 | 0.00 | 68 | 1018.4 |
| 20260506135130 | 25 | 208 | 1.6 | 3.2 | 0.00 | 0.00 | 0.00 | 68 | 1018.6 |
| 20260506134627 | 25 | 240 | 4.8 | 4.8 | 0.00 | 0.00 | 0.00 | 69 | 1018.6 |
| 20260506134122 | 24 | 189 | 1.6 | 1.6 | 0.00 | 0.00 | 0.00 | 70 | 1018.5 |
| 20260506133620 | 24 | 167 | 3.2 | 3.2 | 0.00 | 0.00 | 0.00 | 70 | 1018.7 |
| 20260506133117 | 24 | 206 | 1.6 | 1.6 | 0.00 | 0.00 | 0.00 | 71 | 1018.4 |
| 20260506132614 | 23 | 77 | 1.6 | 3.2 | 0.00 | 0.00 | 0.00 | 71 | 1018.6 |
| 20260506132111 | 23 | 205 | 1.6 | 3.2 | 0.00 | 0.00 | 0.00 | 71 | 1018.8 |
| 20260506131608 | 23 | 197 | 1.6 | 3.2 | 0.00 | 0.00 | 0.00 | 72 | 1018.5 |
| 20260506131104 | 23 | 189 | 1.6 | 3.2 | 0.00 | 0.00 | 0.00 | 73 | 1018.5 |
| 20260506130601 | 22 | 189 | 0.0 | 1.6 | 0.00 | 0.00 | 0.00 | 74 | 1018.5 |
| 20260506130058 | 22 | 191 | 4.8 | 4.8 | 0.00 | 0.00 | 0.00 | 72 | 1018.5 |
| 20260506125557 | 22 | 182 | 1.6 | 3.2 | 0.00 | 0.00 | 0.00 | 74 | 1018.5 |
| 20260506125054 | 21 | 247 | 0.0 | 1.6 | 0.00 | 0.00 | 0.00 | 76 | 1018.5 |
| 20260506124551 | 21 | 211 | 1.6 | 1.6 | 0.00 | 0.00 | 0.00 | 75 | 1018.2 |
| 20260506124049 | 21 | 128 | 1.6 | 1.6 | 0.00 | 0.00 | 0.00 | 76 | 1018.3 |
| 20260506123547 | 21 | 181 | 0.0 | 1.6 | 0.00 | 0.00 | 0.00 | 78 | 1018.1 |
| 20260506123046 | 20 | 172 | 1.6 | 1.6 | 0.00 | 0.00 | 0.00 | 78 | 1018.0 |
| 20260506122541 | 20 | 65 | 0.0 | 0.0 | 0.00 | 0.00 | 0.00 | 80 | 1018.2 |
| 20260506122040 | 20 | 50 | 0.0 | 0.0 | 0.00 | 0.00 | 0.00 | 80 | 1018.0 |
| 20260506121537 | 19 | 68 | 0.0 | 0.0 | 0.00 | 0.00 | 0.00 | 82 | 1017.9 |
| 20260506121033 | 18 | 76 | 0.0 | 0.0 | 0.00 | 0.00 | 0.00 | 84 | 1018.1 |
| 20260506120531 | 18 | 82 | 0.0 | 0.0 | 0.00 | 0.00 | 0.00 | 87 | 1017.5 |
| 20260506120028 | 17 | 70 | 0.0 | 0.0 | 0.00 | 0.00 | 0.00 | 89 | 1017.8 |
| 20260506115526 | 17 | 72 | 0.0 | 0.0 | 0.00 | 0.00 | 0.00 | 90 | 1017.7 |
| 20260506115025 | 17 | 74 | 0.0 | 0.0 | 0.00 | 0.00 | 0.00 | 91 | 1017.8 |
| 20260506114521 | 17 | 71 | 0.0 | 0.0 | 0.00 | 0.00 | 0.00 | 91 | 1017.8 |
| 20260506114020 | 17 | 71 | 0.0 | 0.0 | 0.00 | 0.00 | 0.00 | 92 | 1017.8 |
| 20260506113517 | 16 | 71 | 0.0 | 0.0 | 0.00 | 0.00 | 0.00 | 92 | 1017.6 |
| 20260506113014 | 16 | 71 | 0.0 | 0.0 | 0.00 | 0.00 | 0.00 | 92 | 1017.7 |
| 20260506112511 | 16 | 71 | 0.0 | 0.0 | 0.00 | 0.00 | 0.00 | 92 | 1017.6 |
| 20260506112009 | 16 | 71 | 0.0 | 0.0 | 0.00 | 0.00 | 0.00 | 92 | 1017.9 |
| 20260506111506 | 16 | 71 | 0.0 | 0.0 | 0.00 | 0.00 | 0.00 | 92 | 1017.7 |
| 20260506111003 | 15 | 71 | 0.0 | 0.0 | 0.00 | 0.00 | 0.00 | 92 | 1017.8 |
| 20260506110501 | 15 | 72 | 0.0 | 0.0 | 0.00 | 0.00 | 0.00 | 92 | 1017.9 |
| 20260506105957 | 15 | 72 | 0.0 | 0.0 | 0.00 | 0.00 | 0.00 | 92 | 1017.4 |
| 20260506105453 | 15 | 71 | 0.0 | 0.0 | 0.00 | 0.00 | 0.00 | 92 | 1017.5 |
| 20260506104951 | 15 | 71 | 0.0 | 0.0 | 0.00 | 0.00 | 0.00 | 92 | 1017.4 |
| 20260506104449 | 15 | 72 | 0.0 | 0.0 | 0.00 | 0.00 | 0.00 | 92 | 1017.4 |
| 20260506103947 | 16 | 73 | 0.0 | 0.0 | 0.00 | 0.00 | 0.00 | 92 | 1017.1 |
| 20260506103444 | 15 | 74 | 0.0 | 0.0 | 0.00 | 0.00 | 0.00 | 92 | 1017.2 |
| 20260506102941 | 15 | 74 | 0.0 | 0.0 | 0.00 | 0.00 | 0.00 | 91 | 1017.4 |
| 20260506102439 | 15 | 74 | 0.0 | 0.0 | 0.00 | 0.00 | 0.00 | 91 | 1017.1 |
| 20260506101936 | 16 | 74 | 0.0 | 0.0 | 0.00 | 0.00 | 0.00 | 91 | 1017.2 |
| 20260506101432 | 16 | 74 | 0.0 | 0.0 | 0.00 | 0.00 | 0.00 | 90 | 1016.9 |
| 20260506100930 | 16 | 75 | 0.0 | 0.0 | 0.00 | 0.00 | 0.00 | 90 | 1017.0 |
| 20260506100428 | 16 | 75 | 0.0 | 0.0 | 0.00 | 0.00 | 0.00 | 90 | 1017.4 |
| 20260506095925 | 16 | 72 | 0.0 | 0.0 | 0.00 | 0.00 | 0.00 | 90 | 1017.3 |
| 20260506095424 | 16 | 72 | 0.0 | 0.0 | 0.00 | 0.00 | 0.00 | 90 | 1017.3 |
| 20260506094920 | 16 | 71 | 0.0 | 0.0 | 0.00 | 0.00 | 0.00 | 90 | 1017.4 |
| 20260506094419 | 16 | 72 | 0.0 | 0.0 | 0.00 | 0.00 | 0.00 | 90 | 1017.3 |
| 20260506093916 | 16 | 71 | 0.0 | 0.0 | 0.00 | 0.00 | 0.00 | 90 | 1017.4 |
| 20260506093413 | 16 | 71 | 0.0 | 0.0 | 0.00 | 0.00 | 0.00 | 90 | 1017.4 |
| 20260506092911 | 16 | 71 | 0.0 | 0.0 | 0.00 | 0.00 | 0.00 | 89 | 1017.3 |
| 20260506092409 | 16 | 71 | 0.0 | 0.0 | 0.00 | 0.00 | 0.00 | 89 | 1017.0 |
| 20260506091905 | 16 | 71 | 0.0 | 0.0 | 0.00 | 0.00 | 0.00 | 89 | 1017.1 |
| 20260506091403 | 16 | 71 | 0.0 | 0.0 | 0.00 | 0.00 | 0.00 | 88 | 1016.8 |
| 20260506090900 | 16 | 72 | 0.0 | 0.0 | 0.00 | 0.00 | 0.00 | 88 | 1016.8 |
| 20260506090358 | 16 | 72 | 0.0 | 0.0 | 0.00 | 0.00 | 0.00 | 87 | 1016.6 |
| 20260506085854 | 16 | 72 | 0.0 | 0.0 | 0.00 | 0.00 | 0.00 | 87 | 1016.9 |
| 20260506085351 | 16 | 73 | 0.0 | 0.0 | 0.00 | 0.00 | 0.00 | 87 | 1016.8 |
| 20260506084847 | 16 | 71 | 0.0 | 0.0 | 0.00 | 0.00 | 0.00 | 87 | 1016.8 |
| 20260506084344 | 16 | 74 | 0.0 | 0.0 | 0.00 | 0.00 | 0.00 | 87 | 1017.1 |
| 20260506083841 | 16 | 72 | 0.0 | 0.0 | 0.00 | 0.00 | 0.00 | 87 | 1017.0 |
| 20260506083338 | 16 | 72 | 0.0 | 0.0 | 0.00 | 0.00 | 0.00 | 88 | 1017.0 |
| 20260506082836 | 16 | 72 | 0.0 | 0.0 | 0.00 | 0.00 | 0.00 | 88 | 1017.1 |
| 20260506082332 | 16 | 73 | 0.0 | 0.0 | 0.00 | 0.00 | 0.00 | 87 | 1017.0 |
| 20260506081828 | 16 | 73 | 0.0 | 0.0 | 0.00 | 0.00 | 0.00 | 87 | 1016.9 |
| 20260506081326 | 16 | 73 | 0.0 | 0.0 | 0.00 | 0.00 | 0.00 | 87 | 1016.8 |
| 20260506080823 | 16 | 71 | 0.0 | 0.0 | 0.00 | 0.00 | 0.00 | 88 | 1017.0 |
| 20260506080320 | 16 | 72 | 0.0 | 0.0 | 0.00 | 0.00 | 0.00 | 88 | 1017.0 |
| 20260506073304 | 16 | 72 | 0.0 | 0.0 | 0.00 | 0.00 | 0.00 | 87 | 1016.7 |
| 20260506072800 | 16 | 71 | 0.0 | 0.0 | 0.00 | 0.00 | 0.00 | 87 | 1016.7 |
| 20260506072258 | 16 | 72 | 0.0 | 0.0 | 0.00 | 0.00 | 0.00 | 87 | 1016.7 |
| 20260506071755 | 16 | 73 | 0.0 | 0.0 | 0.00 | 0.00 | 0.00 | 87 | 1016.7 |
| 20260506071253 | 16 | 73 | 0.0 | 0.0 | 0.00 | 0.00 | 0.00 | 87 | 1016.8 |
| 20260506070745 | 16 | 72 | 0.0 | 0.0 | 0.00 | 0.00 | 0.00 | 87 | 1017.0 |
| 20260506070243 | 16 | 72 | 0.0 | 0.0 | 0.00 | 0.00 | 0.00 | 87 | 1017.1 |
| 20260506062218 | 16 | 73 | 0.0 | 0.0 | 0.00 | 0.00 | 0.00 | 85 | 1017.4 |
| 20260506061714 | 16 | 73 | 0.0 | 0.0 | 0.00 | 0.00 | 0.00 | 85 | 1017.5 |
| 20260506061212 | 16 | 73 | 0.0 | 0.0 | 0.00 | 0.00 | 0.00 | 85 | 1017.4 |
| 20260506060710 | 16 | 76 | 0.0 | 0.0 | 0.00 | 0.00 | 0.00 | 85 | 1017.6 |
| 20260506060206 | 16 | 74 | 0.0 | 0.0 | 0.00 | 0.00 | 0.00 | 85 | 1017.8 |
| 20260506051139 | 16 | 74 | 0.0 | 0.0 | 0.00 | 0.00 | 0.00 | 85 | 1018.0 |
| 20260506050638 | 16 | 74 | 0.0 | 0.0 | 0.00 | 0.00 | 0.00 | 85 | 1017.9 |
| 20260506050134 | 17 | 74 | 0.0 | 0.0 | 0.00 | 0.00 | 0.00 | 85 | 1017.9 |
| 20260506045127 | 17 | 74 | 0.0 | 0.0 | 0.00 | 0.00 | 0.00 | 86 | 1018.2 |
| 20260506044625 | 17 | 74 | 0.0 | 0.0 | 0.00 | 0.00 | 0.00 | 86 | 1018.2 |
| 20260506044121 | 17 | 74 | 0.0 | 0.0 | 0.00 | 0.00 | 0.00 | 86 | 1018.1 |
| 20260506043619 | 17 | 74 | 0.0 | 0.0 | 0.00 | 0.00 | 0.00 | 84 | 1018.1 |
| 20260506043117 | 17 | 74 | 0.0 | 0.0 | 0.00 | 0.00 | 0.00 | 84 | 1018.4 |
| 20260506042615 | 17 | 74 | 0.0 | 0.0 | 0.00 | 0.00 | 0.00 | 83 | 1018.1 |
| 20260506042113 | 17 | 74 | 0.0 | 0.0 | 0.00 | 0.00 | 0.00 | 83 | 1018.3 |
| 20260506041612 | 17 | 74 | 0.0 | 0.0 | 0.00 | 0.00 | 0.00 | 82 | 1018.2 |
| 20260506041108 | 17 | 74 | 0.0 | 0.0 | 0.00 | 0.00 | 0.00 | 82 | 1018.2 |
| 20260506040606 | 17 | 74 | 0.0 | 0.0 | 0.00 | 0.00 | 0.00 | 82 | 1018.4 |
| 20260506035559 | 17 | 74 | 0.0 | 0.0 | 0.00 | 0.00 | 0.00 | 81 | 1018.4 |
| 20260506035055 | 17 | 74 | 0.0 | 0.0 | 0.00 | 0.00 | 0.00 | 81 | 1018.2 |
| 20260506034553 | 17 | 74 | 0.0 | 0.0 | 0.00 | 0.00 | 0.00 | 80 | 1018.4 |
| 20260506034050 | 18 | 74 | 0.0 | 0.0 | 0.00 | 0.00 | 0.00 | 80 | 1018.3 |
| 20260506033548 | 18 | 74 | 0.0 | 0.0 | 0.00 | 0.00 | 0.00 | 79 | 1018.1 |
| 20260506033044 | 18 | 74 | 0.0 | 0.0 | 0.00 | 0.00 | 0.00 | 79 | 1018.2 |
| 20260506032542 | 18 | 74 | 0.0 | 0.0 | 0.00 | 0.00 | 0.00 | 77 | 1018.2 |
| 20260506032038 | 18 | 74 | 0.0 | 0.0 | 0.00 | 0.00 | 0.00 | 76 | 1018.2 |
| 20260506031536 | 18 | 74 | 0.0 | 0.0 | 0.00 | 0.00 | 0.00 | 76 | 1018.0 |
| 20260506031032 | 18 | 74 | 0.0 | 0.0 | 0.00 | 0.00 | 0.00 | 75 | 1018.1 |
| 20260506030531 | 18 | 74 | 0.0 | 0.0 | 0.00 | 0.00 | 0.00 | 74 | 1018.0 |
| 20260506030028 | 19 | 74 | 0.0 | 0.0 | 0.00 | 0.00 | 0.00 | 74 | 1018.0 |
| 20260506025525 | 19 | 74 | 0.0 | 0.0 | 0.00 | 0.00 | 0.00 | 74 | 1017.9 |
| 20260506025021 | 19 | 75 | 0.0 | 0.0 | 0.00 | 0.00 | 0.00 | 74 | 1017.7 |
| 20260506024518 | 19 | 75 | 0.0 | 0.0 | 0.00 | 0.00 | 0.00 | 72 | 1018.0 |
| 20260506024014 | 20 | 74 | 0.0 | 0.0 | 0.00 | 0.00 | 0.00 | 71 | 1018.0 |
| 20260506023510 | 20 | 75 | 0.0 | 0.0 | 0.00 | 0.00 | 0.00 | 71 | 1018.0 |
| 20260506023008 | 20 | 76 | 0.0 | 0.0 | 0.00 | 0.00 | 0.00 | 70 | 1017.9 |
| 20260506022506 | 20 | 70 | 0.0 | 0.0 | 0.00 | 0.00 | 0.00 | 69 | 1017.9 |
| 20260506022003 | 20 | 70 | 0.0 | 0.0 | 0.00 | 0.00 | 0.00 | 68 | 1017.9 |
| 20260506021501 | 20 | 70 | 0.0 | 0.0 | 0.00 | 0.00 | 0.00 | 68 | 1017.5 |
| 20260506020957 | 21 | 70 | 0.0 | 0.0 | 0.00 | 0.00 | 0.00 | 67 | 1017.5 |
| 20260506020455 | 21 | 75 | 0.0 | 0.0 | 0.00 | 0.00 | 0.00 | 66 | 1017.5 |
| 20260506015951 | 21 | 65 | 0.0 | 0.0 | 0.00 | 0.00 | 0.00 | 66 | 1017.7 |
| 20260506015449 | 21 | 74 | 0.0 | 0.0 | 0.00 | 0.00 | 0.00 | 65 | 1017.6 |
| 20260506014946 | 21 | 117 | 0.0 | 1.6 | 0.00 | 0.00 | 0.00 | 65 | 1017.4 |
| 20260506014443 | 21 | 88 | 0.0 | 0.0 | 0.00 | 0.00 | 0.00 | 64 | 1017.4 |
| 20260506013939 | 21 | 75 | 0.0 | 0.0 | 0.00 | 0.00 | 0.00 | 64 | 1017.1 |
| 20260506013438 | 21 | 74 | 1.6 | 1.6 | 0.00 | 0.00 | 0.00 | 64 | 1017.1 |
| 20260506012933 | 21 | 85 | 1.6 | 1.6 | 0.00 | 0.00 | 0.00 | 63 | 1017.1 |
| 20260506012430 | 21 | 82 | 0.0 | 1.6 | 0.00 | 0.00 | 0.00 | 63 | 1016.9 |
| 20260506011927 | 22 | 80 | 0.0 | 0.0 | 0.00 | 0.00 | 0.00 | 62 | 1017.2 |
| 20260506011425 | 22 | 85 | 1.6 | 1.6 | 0.00 | 0.00 | 0.00 | 62 | 1017.1 |
| 20260506010921 | 22 | 93 | 1.6 | 1.6 | 0.00 | 0.00 | 0.00 | 61 | 1016.9 |
| 20260506010420 | 22 | 81 | 1.6 | 1.6 | 0.00 | 0.00 | 0.00 | 61 | 1016.9 |
| 20260506005916 | 22 | 73 | 0.0 | 0.0 | 0.00 | 0.00 | 0.00 | 61 | 1017.2 |
| 20260506005414 | 22 | 85 | 0.0 | 0.0 | 0.00 | 0.00 | 0.00 | 60 | 1017.1 |
| 20260506004909 | 22 | 86 | 1.6 | 1.6 | 0.00 | 0.00 | 0.00 | 59 | 1017.1 |
| 20260506004407 | 22 | 81 | 0.0 | 0.0 | 0.00 | 0.00 | 0.00 | 59 | 1017.0 |
| 20260506003903 | 22 | 77 | 1.6 | 1.6 | 0.00 | 0.00 | 0.00 | 58 | 1017.0 |
| 20260506003359 | 22 | 70 | 1.6 | 3.2 | 0.00 | 0.00 | 0.00 | 58 | 1017.1 |
| 20260506002856 | 22 | 81 | 3.2 | 4.8 | 0.00 | 0.00 | 0.00 | 57 | 1017.1 |
| 20260506002352 | 22 | 117 | 0.0 | 0.0 | 0.00 | 0.00 | 0.00 | 57 | 1017.1 |
| 20260506001848 | 23 | 98 | 1.6 | 1.6 | 0.00 | 0.00 | 0.00 | 56 | 1017.0 |
| 20260506001345 | 23 | 94 | 1.6 | 1.6 | 0.00 | 0.00 | 0.00 | 56 | 1016.9 |
| 20260506000841 | 23 | 103 | 1.6 | 1.6 | 0.00 | 0.00 | 0.00 | 55 | 1016.7 |
| 20260506000340 | 23 | 93 | 1.6 | 3.2 | 0.00 | 0.00 | 0.00 | 54 | 1016.7 |
| 20260505235836 | 23 | 85 | 0.0 | 0.0 | 0.00 | 0.00 | 0.00 | 54 | 1016.8 |
| 20260505235333 | 23 | 69 | 3.2 | 3.2 | 0.00 | 0.00 | 0.00 | 53 | 1016.5 |
| 20260505234830 | 23 | 80 | 0.0 | 1.6 | 0.00 | 0.00 | 0.00 | 53 | 1016.6 |
| 20260505234328 | 23 | 99 | 1.6 | 3.2 | 0.00 | 0.00 | 0.00 | 52 | 1016.5 |
| 20260505233825 | 24 | 81 | 0.0 | 1.6 | 0.00 | 0.00 | 0.00 | 51 | 1016.5 |
| 20260505233323 | 24 | 57 | 4.8 | 8.0 | 0.00 | 0.00 | 0.00 | 50 | 1016.5 |
| 20260505232820 | 25 | 70 | 0.0 | 1.6 | 0.00 | 0.00 | 0.00 | 49 | 1016.4 |
| 20260505232317 | 25 | 93 | 1.6 | 1.6 | 0.00 | 0.00 | 0.00 | 49 | 1016.5 |
| 20260505231814 | 25 | 87 | 1.6 | 1.6 | 0.00 | 0.00 | 0.00 | 49 | 1016.5 |
| 20260505231312 | 25 | 92 | 1.6 | 1.6 | 0.00 | 0.00 | 0.00 | 48 | 1016.5 |
| 20260505230810 | 25 | 81 | 1.6 | 1.6 | 0.00 | 0.00 | 0.00 | 47 | 1016.4 |
| 20260505230306 | 25 | 69 | 0.0 | 0.0 | 0.00 | 0.00 | 0.00 | 47 | 1016.4 |
| 20260505225803 | 25 | 73 | 3.2 | 3.2 | 0.00 | 0.00 | 0.00 | 47 | 1016.4 |
| 20260505225300 | 26 | 92 | 1.6 | 3.2 | 0.00 | 0.00 | 0.00 | 46 | 1016.2 |
| 20260505224755 | 26 | 108 | 1.6 | 1.6 | 0.00 | 0.00 | 0.00 | 46 | 1016.5 |
| 20260505224253 | 26 | 72 | 1.6 | 1.6 | 0.00 | 0.00 | 0.00 | 46 | 1016.4 |
| 20260505223750 | 26 | 97 | 1.6 | 3.2 | 0.00 | 0.00 | 0.00 | 46 | 1016.4 |
| 20260505223247 | 26 | 82 | 8.0 | 9.7 | 0.00 | 0.00 | 0.00 | 46 | 1016.3 |